| time (UTC) | temp C | wind direction | speed KPH | gust KPH | rain 1hr cm | rain 24hr cm | rain mn cm | humidity % | barometer mb |
| 20260505094629 | 5 | 360 | 14.5 | 32.2 | 0.00 | 0.33 | 0.03 | 92 | 1005.9 |
| 20260505093100 | 5 | 360 | 12.9 | 35.4 | 0.00 | 0.33 | 0.03 | 92 | 1005.8 |
| 20260505091605 | 5 | 360 | 14.5 | 30.6 | 0.03 | 0.33 | 0.03 | 92 | 1005.7 |
| 20260505090054 | 5 | 360 | 12.9 | 30.6 | 0.03 | 0.33 | 0.03 | 91 | 1005.3 |
| 20260505084554 | 5 | 360 | 14.5 | 27.4 | 0.03 | 0.33 | 0.03 | 91 | 1005.3 |
| 20260505083056 | 6 | 360 | 14.5 | 22.5 | 0.03 | 0.33 | 0.03 | 90 | 1005.4 |
| 20260505081547 | 8 | 360 | 4.8 | 19.3 | 0.00 | 0.30 | 0.00 | 92 | 1005.4 |
| 20260505080046 | 7 | 360 | 0.0 | 3.2 | 0.00 | 0.30 | 0.00 | 91 | 1005.2 |
| 20260505074538 | 8 | 360 | 0.0 | 0.0 | 0.00 | 0.30 | 0.00 | 90 | 1005.0 |
| 20260505073039 | 8 | 360 | 0.0 | 0.0 | 0.00 | 0.30 | 0.00 | 89 | 1005.2 |
| 20260505071545 | 8 | 360 | 0.0 | 4.8 | 0.00 | 0.30 | 0.00 | 89 | 1005.0 |
| 20260505070030 | 8 | 360 | 0.0 | 4.8 | 0.00 | 0.30 | 0.00 | 91 | 1005.0 |
| 20260505064533 | 8 | 360 | 0.0 | 0.0 | 0.00 | 0.30 | 0.00 | 91 | 1005.1 |
| 20260505063025 | 8 | 360 | 0.0 | 0.0 | 0.00 | 0.30 | 0.00 | 91 | 1005.0 |
| 20260505061528 | 7 | 360 | 0.0 | 0.0 | 0.00 | 0.30 | 0.00 | 91 | 1005.0 |
| 20260505060033 | 7 | 360 | 0.0 | 0.0 | 0.00 | 0.30 | 0.00 | 90 | 1004.9 |
| 20260505054522 | 7 | 360 | 0.0 | 0.0 | 0.00 | 0.30 | 0.30 | 90 | 1005.0 |
| 20260505053026 | 8 | 360 | 0.0 | 3.2 | 0.00 | 0.30 | 0.30 | 90 | 1004.7 |
| 20260505051521 | 8 | 360 | 0.0 | 0.0 | 0.00 | 0.30 | 0.30 | 90 | 1004.6 |
| 20260505041518 | 8 | 360 | 1.6 | 8.0 | 0.20 | 0.30 | 0.30 | 89 | 1004.9 |
| 20260505040017 | 8 | 360 | 3.2 | 9.7 | 0.28 | 0.30 | 0.30 | 88 | 1005.0 |
| 20260505034517 | 8 | 360 | 3.2 | 9.7 | 0.25 | 0.25 | 0.25 | 88 | 1004.9 |
| 20260505033019 | 8 | 360 | 6.4 | 14.5 | 0.18 | 0.18 | 0.18 | 86 | 1005.2 |
| 20260505031513 | 8 | 360 | 9.7 | 20.9 | 0.10 | 0.10 | 0.10 | 83 | 1004.7 |
| 20260505030008 | 10 | 360 | 8.0 | 16.1 | 0.03 | 0.03 | 0.03 | 77 | 1004.2 |
| 20260505024505 | 10 | 360 | 4.8 | 16.1 | 0.00 | 0.00 | 0.00 | 70 | 1003.6 |
| 20260505023002 | 11 | 360 | 8.0 | 17.7 | 0.00 | 0.00 | 0.00 | 69 | 1003.4 |
| 20260505021502 | 11 | 360 | 9.7 | 22.5 | 0.00 | 0.00 | 0.00 | 66 | 1003.1 |
| 20260505020104 | 11 | 360 | 9.7 | 22.5 | 0.00 | 0.00 | 0.00 | 63 | 1002.9 |
| 20260505014605 | 13 | 360 | 0.0 | 4.8 | 0.00 | 0.00 | 0.00 | 54 | 1002.9 |
| 20260505013055 | 13 | 360 | 0.0 | 0.0 | 0.00 | 0.00 | 0.00 | 53 | 1002.3 |
| 20260505011557 | 13 | 360 | 0.0 | 0.0 | 0.00 | 0.00 | 0.00 | 53 | 1002.5 |
| 20260505010056 | 13 | 360 | 1.6 | 6.4 | 0.00 | 0.00 | 0.00 | 54 | 1002.4 |
| 20260505004557 | 13 | 360 | 3.2 | 12.9 | 0.00 | 0.00 | 0.00 | 56 | 1002.5 |
| 20260505003053 | 14 | 360 | 17.7 | 27.4 | 0.00 | 0.00 | 0.00 | 47 | 1002.6 |
| 20260505001551 | 15 | 360 | 0.0 | 12.9 | 0.00 | 0.00 | 0.00 | 45 | 1002.4 |
| 20260505000056 | 15 | 360 | 6.4 | 16.1 | 0.00 | 0.00 | 0.00 | 44 | 1001.9 |
| 20260504234549 | 15 | 360 | 11.3 | 22.5 | 0.00 | 0.00 | 0.00 | 43 | 1001.6 |
| 20260504233049 | 15 | 360 | 6.4 | 20.9 | 0.00 | 0.00 | 0.00 | 44 | 1001.4 |
| 20260504231549 | 15 | 360 | 8.0 | 22.5 | 0.00 | 0.00 | 0.00 | 42 | 1001.2 |
| 20260504230051 | 15 | 360 | 17.7 | 29.0 | 0.00 | 0.00 | 0.00 | 42 | 1001.2 |
| 20260504224548 | 15 | 360 | 14.5 | 27.4 | 0.00 | 0.00 | 0.00 | 41 | 1001.1 |
| 20260504223046 | 15 | 360 | 12.9 | 25.7 | 0.00 | 0.00 | 0.00 | 41 | 1001.2 |
| 20260504221546 | 15 | 360 | 12.9 | 22.5 | 0.00 | 0.00 | 0.00 | 41 | 1001.0 |
| 20260504220046 | 16 | 360 | 17.7 | 32.2 | 0.00 | 0.00 | 0.00 | 39 | 1000.7 |
| 20260504214553 | 16 | 360 | 14.5 | 30.6 | 0.00 | 0.00 | 0.00 | 36 | 1000.1 |
| 20260504213044 | 18 | 360 | 19.3 | 43.5 | 0.00 | 0.00 | 0.00 | 32 | 999.9 |
| 20260504211543 | 19 | 360 | 4.8 | 9.7 | 0.00 | 0.00 | 0.00 | 27 | 999.6 |
| 20260504210055 | 18 | 360 | 0.0 | 9.7 | 0.00 | 0.00 | 0.00 | 30 | 999.7 |
| 20260504204557 | 17 | 360 | 4.8 | 9.7 | 0.00 | 0.00 | 0.00 | 31 | 1000.0 |
| 20260504203044 | 17 | 360 | 0.0 | 0.0 | 0.00 | 0.00 | 0.00 | 33 | 1000.5 |
| 20260504201541 | 16 | 360 | 6.4 | 20.9 | 0.00 | 0.00 | 0.00 | 35 | 1001.2 |
| 20260504200042 | 16 | 360 | 6.4 | 22.5 | 0.00 | 0.00 | 0.00 | 37 | 1001.1 |
| 20260504194541 | 15 | 360 | 9.7 | 20.9 | 0.00 | 0.00 | 0.00 | 43 | 1001.0 |
| 20260504193040 | 16 | 360 | 6.4 | 20.9 | 0.00 | 0.00 | 0.00 | 37 | 1001.5 |
| 20260504191538 | 17 | 360 | 16.1 | 35.4 | 0.00 | 0.00 | 0.00 | 29 | 1001.0 |
| 20260504190037 | 19 | 360 | 4.8 | 17.7 | 0.00 | 0.00 | 0.00 | 22 | 1000.0 |
| 20260504184537 | 20 | 360 | 3.2 | 19.3 | 0.00 | 0.00 | 0.00 | 23 | 999.6 |
| 20260504183036 | 20 | 360 | 0.0 | 0.0 | 0.00 | 0.00 | 0.00 | 21 | 999.8 |
| 20260504181535 | 20 | 360 | 4.8 | 17.7 | 0.00 | 0.00 | 0.00 | 20 | 999.9 |
| 20260504180033 | 20 | 360 | 4.8 | 22.5 | 0.00 | 0.00 | 0.00 | 23 | 1000.1 |
| 20260504174533 | 20 | 360 | 12.9 | 20.9 | 0.00 | 0.00 | 0.00 | 23 | 1000.3 |
| 20260504173029 | 21 | 360 | 9.7 | 22.5 | 0.00 | 0.00 | 0.00 | 23 | 1000.5 |
| 20260504171526 | 21 | 360 | 8.0 | 20.9 | 0.00 | 0.00 | 0.00 | 23 | 1000.7 |